createdAt,value
2019-03-26T00:00:25.092Z,3.92
2019-03-26T00:02:25.103Z,3.86
2019-03-26T00:04:25.271Z,3.87
2019-03-26T00:06:25.001Z,3.86
2019-03-26T00:08:24.968Z,3.96
2019-03-26T00:10:25.102Z,3.87
2019-03-26T00:12:25.111Z,3.92
2019-03-26T00:14:25.265Z,3.95
2019-03-26T00:16:25.134Z,3.92
2019-03-26T00:18:25.155Z,3.93
2019-03-26T00:20:25.103Z,3.89
2019-03-26T00:22:25.153Z,3.82
2019-03-26T00:24:25.074Z,3.83
2019-03-26T00:26:25.090Z,3.84
2019-03-26T00:28:25.310Z,3.81
2019-03-26T00:30:25.118Z,3.73
2019-03-26T00:32:25.247Z,3.64
2019-03-26T00:34:25.345Z,3.61
2019-03-26T00:36:24.944Z,3.64
2019-03-26T00:38:24.950Z,3.60
2019-03-26T00:40:25.135Z,3.54
2019-03-26T00:42:25.125Z,3.58
2019-03-26T00:44:25.199Z,3.41
2019-03-26T00:46:25.207Z,3.45
2019-03-26T00:48:25.220Z,3.42
2019-03-26T00:50:24.925Z,3.39
2019-03-26T00:52:25.244Z,3.32
2019-03-26T00:54:25.049Z,3.39
2019-03-26T00:56:25.203Z,3.28
2019-03-26T00:58:25.070Z,3.25
2019-03-26T01:00:25.094Z,3.14
2019-03-26T01:02:25.195Z,3.13
2019-03-26T01:04:32.846Z,3.15
2019-03-26T01:06:25.122Z,3.14
2019-03-26T01:08:25.117Z,3.04
2019-03-26T01:10:25.041Z,3.03
2019-03-26T01:12:25.079Z,3.04
2019-03-26T01:14:25.158Z,2.96
2019-03-26T01:16:25.178Z,2.93
2019-03-26T01:18:25.190Z,2.92
2019-03-26T01:20:25.101Z,2.93
2019-03-26T01:22:25.010Z,2.91
2019-03-26T01:24:25.217Z,2.87
2019-03-26T01:26:25.190Z,2.81
2019-03-26T01:28:24.834Z,2.93
2019-03-26T01:30:24.910Z,2.84
2019-03-26T01:32:24.922Z,2.84
2019-03-26T01:34:25.180Z,2.76
2019-03-26T01:36:25.132Z,2.80
2019-03-26T01:38:25.140Z,2.71
2019-03-26T01:40:25.217Z,2.77
2019-03-26T01:42:25.433Z,2.72
2019-03-26T01:44:24.969Z,2.79
2019-03-26T01:46:25.173Z,2.76
2019-03-26T01:48:25.052Z,2.74
2019-03-26T01:50:24.997Z,2.90
2019-03-26T01:52:25.077Z,2.76
2019-03-26T01:54:25.305Z,2.72
2019-03-26T01:56:25.024Z,2.72
2019-03-26T01:58:25.311Z,2.64
2019-03-26T02:00:25.238Z,2.64
2019-03-26T02:02:25.137Z,2.67
2019-03-26T02:04:27.844Z,2.68
2019-03-26T02:06:25.263Z,2.69
2019-03-26T02:08:25.066Z,2.74
2019-03-26T02:10:25.079Z,2.68
2019-03-26T02:12:24.913Z,2.82
2019-03-26T02:14:24.933Z,2.73
2019-03-26T02:16:25.219Z,2.76
2019-03-26T02:18:24.957Z,2.75
2019-03-26T02:20:25.041Z,2.70
2019-03-26T02:22:27.907Z,2.58
2019-03-26T02:24:25.150Z,2.70
2019-03-26T02:26:25.171Z,2.58
2019-03-26T02:28:24.970Z,2.69
2019-03-26T02:30:25.010Z,2.68
2019-03-26T02:32:24.898Z,2.81
2019-03-26T02:34:28.009Z,2.68
2019-03-26T02:36:25.050Z,2.82
2019-03-26T02:38:25.152Z,2.79
2019-03-26T02:40:25.264Z,2.74
2019-03-26T02:42:28.163Z,2.67
2019-03-26T02:44:25.184Z,2.73
2019-03-26T02:46:25.227Z,2.59
2019-03-26T02:48:24.891Z,2.56
2019-03-26T02:50:28.077Z,2.63
2019-03-26T02:52:25.328Z,2.74
2019-03-26T02:54:25.048Z,2.64
2019-03-26T02:56:25.144Z,2.63
2019-03-26T02:58:28.012Z,2.57
2019-03-26T03:00:24.959Z,2.58
2019-03-26T03:02:24.871Z,2.53
2019-03-26T03:04:25.039Z,2.53
2019-03-26T03:06:25.046Z,2.47
2019-03-26T03:08:25.217Z,2.53
2019-03-26T03:10:25.222Z,2.71
2019-03-26T03:12:25.139Z,2.59
2019-03-26T03:14:24.940Z,2.62
2019-03-26T03:16:25.770Z,2.65
2019-03-26T03:18:25.175Z,2.56
2019-03-26T03:20:25.081Z,2.50
2019-03-26T03:22:25.094Z,2.61
2019-03-26T03:24:25.093Z,2.56
2019-03-26T03:26:25.520Z,2.52
2019-03-26T03:28:25.129Z,2.55
2019-03-26T03:30:25.355Z,2.45
2019-03-26T03:32:25.158Z,2.35
2019-03-26T03:34:25.241Z,2.47
2019-03-26T03:36:25.281Z,2.30
2019-03-26T03:38:25.144Z,2.28
2019-03-26T03:40:25.192Z,2.32
2019-03-26T03:42:25.068Z,2.22
2019-03-26T03:44:25.156Z,2.25
2019-03-26T03:46:25.249Z,2.22
2019-03-26T03:48:25.142Z,2.13
2019-03-26T03:50:25.072Z,2.18
2019-03-26T03:52:25.374Z,2.22
2019-03-26T03:54:25.178Z,2.12
2019-03-26T03:56:25.187Z,2.08
2019-03-26T03:58:25.203Z,2.09
2019-03-26T04:00:25.222Z,1.97
2019-03-26T04:02:25.229Z,2.03
2019-03-26T04:04:25.255Z,1.91
2019-03-26T04:06:25.244Z,1.94
2019-03-26T04:08:25.258Z,1.78
2019-03-26T04:10:25.265Z,1.79
2019-03-26T04:12:25.199Z,1.72
2019-03-26T04:14:25.157Z,1.70
2019-03-26T04:16:25.268Z,1.55
2019-03-26T04:18:25.237Z,1.58
2019-03-26T04:20:25.123Z,1.56
2019-03-26T04:22:24.924Z,1.47
2019-03-26T04:24:25.254Z,1.45
2019-03-26T04:26:25.258Z,1.49
2019-03-26T04:28:25.165Z,1.40
2019-03-26T04:30:25.119Z,1.44
2019-03-26T04:32:25.393Z,1.43
2019-03-26T04:34:25.824Z,1.30
2019-03-26T04:36:26.333Z,1.18
2019-03-26T04:38:25.229Z,1.18
2019-03-26T04:40:25.237Z,1.01
2019-03-26T04:42:25.045Z,1.08
2019-03-26T04:44:24.986Z,1.07
2019-03-26T04:46:25.191Z,0.91
2019-03-26T04:48:25.179Z,0.96
2019-03-26T04:50:25.084Z,0.86
2019-03-26T04:52:25.252Z,0.91
2019-03-26T04:54:25.156Z,0.85
2019-03-26T04:56:25.015Z,0.78
2019-03-26T04:58:25.244Z,0.84
2019-03-26T05:00:25.046Z,0.74
2019-03-26T05:02:25.475Z,0.76
2019-03-26T05:04:25.370Z,0.68
2019-03-26T05:06:37.487Z,0.67
2019-03-26T05:08:25.092Z,0.56
2019-03-26T05:10:25.206Z,0.61
2019-03-26T05:12:25.316Z,0.90
2019-03-26T05:14:25.127Z,0.77
2019-03-26T05:16:25.082Z,0.87
2019-03-26T05:18:25.049Z,0.80
2019-03-26T05:20:25.163Z,0.78
2019-03-26T05:22:25.072Z,0.65
2019-03-26T05:24:25.091Z,0.75
2019-03-26T05:26:24.940Z,0.65
2019-03-26T05:28:24.999Z,0.69
2019-03-26T05:30:25.216Z,0.70
2019-03-26T05:32:25.131Z,0.67
2019-03-26T05:34:25.141Z,0.79
2019-03-26T05:36:25.149Z,0.79
2019-03-26T05:38:25.165Z,1.02
2019-03-26T05:40:25.178Z,1.10
2019-03-26T05:42:24.978Z,1.34
2019-03-26T05:44:24.919Z,1.40
2019-03-26T05:46:25.212Z,1.52
2019-03-26T05:48:25.013Z,1.68
2019-03-26T05:50:25.442Z,1.92
2019-03-26T05:52:25.245Z,2.00
2019-03-26T05:54:25.262Z,2.06
2019-03-26T05:56:25.058Z,2.20
2019-03-26T05:58:25.050Z,2.34
2019-03-26T06:00:25.183Z,2.39
2019-03-26T06:02:24.998Z,2.48
2019-03-26T06:04:25.515Z,2.49
2019-03-26T06:06:26.350Z,2.59
2019-03-26T06:08:25.134Z,2.71
2019-03-26T06:10:25.454Z,2.70
2019-03-26T06:12:25.263Z,2.76
2019-03-26T06:14:25.367Z,2.83
2019-03-26T06:16:37.617Z,2.91
2019-03-26T06:18:25.286Z,2.98
2019-03-26T06:20:25.204Z,3.05
2019-03-26T06:22:25.321Z,3.10
2019-03-26T06:24:25.243Z,3.18
2019-03-26T06:26:25.233Z,3.28
2019-03-26T06:28:25.513Z,3.34
2019-03-26T06:30:25.161Z,3.39
2019-03-26T06:32:25.368Z,3.64
2019-03-26T06:34:25.409Z,3.64
2019-03-26T06:36:24.920Z,3.73
2019-03-26T06:38:25.144Z,3.82
2019-03-26T06:40:25.219Z,4.06
2019-03-26T06:42:25.240Z,3.99
2019-03-26T06:44:25.239Z,4.20
2019-03-26T06:46:25.246Z,4.31
2019-03-26T06:48:25.144Z,4.35
2019-03-26T06:50:25.075Z,4.39
2019-03-26T06:52:25.486Z,4.44
2019-03-26T06:54:25.040Z,4.43
2019-03-26T06:56:25.516Z,4.52
2019-03-26T06:58:25.527Z,4.75
2019-03-26T07:00:25.334Z,4.70
2019-03-26T07:02:25.271Z,4.79
2019-03-26T07:04:25.363Z,4.84
2019-03-26T07:06:25.270Z,4.94
2019-03-26T07:08:25.481Z,4.87
2019-03-26T07:10:25.159Z,5.06
2019-03-26T07:12:25.302Z,5.10
2019-03-26T07:14:25.226Z,5.12
2019-03-26T07:16:25.349Z,5.06
2019-03-26T07:18:25.233Z,4.98
2019-03-26T07:20:25.162Z,5.03
2019-03-26T07:22:25.054Z,5.24
2019-03-26T07:24:25.478Z,5.25
2019-03-26T07:26:25.116Z,5.39
2019-03-26T07:28:25.027Z,5.47
2019-03-26T07:30:25.097Z,5.40
2019-03-26T07:32:25.519Z,5.50
2019-03-26T07:34:25.276Z,5.46
2019-03-26T07:36:25.087Z,5.47
2019-03-26T07:38:25.344Z,5.55
2019-03-26T07:40:27.957Z,5.47
2019-03-26T07:42:25.168Z,5.39
2019-03-26T07:44:25.292Z,5.40
2019-03-26T07:46:25.394Z,5.45
2019-03-26T07:48:25.204Z,5.40
2019-03-26T07:50:25.325Z,5.35
2019-03-26T07:52:25.285Z,5.33
2019-03-26T07:54:25.337Z,5.46
2019-03-26T07:56:25.146Z,5.40
2019-03-26T07:58:25.366Z,5.35
2019-03-26T08:00:25.115Z,5.48
2019-03-26T08:02:25.324Z,5.45
2019-03-26T08:04:25.316Z,5.39
2019-03-26T08:06:25.410Z,5.47
2019-03-26T08:08:25.368Z,5.42
2019-03-26T08:10:25.433Z,5.38
2019-03-26T08:12:25.436Z,5.39
2019-03-26T08:14:25.195Z,5.34
2019-03-26T08:16:25.098Z,5.31
2019-03-26T08:18:25.291Z,5.31
2019-03-26T08:20:25.321Z,5.22
2019-03-26T08:22:25.177Z,5.24
2019-03-26T08:24:25.408Z,5.12
2019-03-26T08:26:25.259Z,5.15
2019-03-26T08:28:25.323Z,5.21
2019-03-26T08:30:25.184Z,5.19
2019-03-26T08:32:25.199Z,5.09
2019-03-26T08:34:25.260Z,5.17
2019-03-26T08:36:25.072Z,5.15
2019-03-26T08:38:25.230Z,5.15
2019-03-26T08:40:25.331Z,5.13
2019-03-26T08:42:25.345Z,5.05
2019-03-26T08:44:25.278Z,5.04
2019-03-26T08:46:24.944Z,5.01
2019-03-26T08:48:25.086Z,5.05
2019-03-26T08:50:25.257Z,5.04
2019-03-26T08:52:25.264Z,5.09
2019-03-26T08:54:25.300Z,5.06
2019-03-26T08:56:25.344Z,5.05
2019-03-26T08:58:25.095Z,5.08
2019-03-26T09:00:25.062Z,5.13
2019-03-26T09:02:25.069Z,5.07
2019-03-26T09:04:26.918Z,5.01
2019-03-26T09:06:25.363Z,5.16
2019-03-26T09:08:25.831Z,5.19
2019-03-26T09:10:25.318Z,5.21
2019-03-26T09:12:25.248Z,5.12
2019-03-26T09:14:25.127Z,5.23
2019-03-26T09:16:25.205Z,5.28
2019-03-26T09:18:25.354Z,5.28
2019-03-26T09:20:25.422Z,5.18
2019-03-26T09:22:25.333Z,5.32
2019-03-26T09:24:25.147Z,5.21
2019-03-26T09:26:25.156Z,5.17
2019-03-26T09:28:25.086Z,5.20
2019-03-26T09:30:25.274Z,5.19
2019-03-26T09:32:25.290Z,5.27
2019-03-26T09:34:25.299Z,5.36
2019-03-26T09:36:25.247Z,5.40
2019-03-26T09:38:38.040Z,5.42
2019-03-26T09:40:25.135Z,5.56
2019-03-26T09:42:25.150Z,5.64
2019-03-26T09:44:25.223Z,5.78
2019-03-26T09:46:25.269Z,5.87
2019-03-26T09:48:25.281Z,6.08
2019-03-26T09:50:25.400Z,6.06
2019-03-26T09:52:25.410Z,6.14
2019-03-26T09:54:25.374Z,6.14
2019-03-26T09:56:30.711Z,6.23
2019-03-26T09:58:25.252Z,6.02
2019-03-26T10:00:25.251Z,6.10
2019-03-26T10:02:25.422Z,5.96
2019-03-26T10:04:25.143Z,5.92
2019-03-26T10:06:25.388Z,5.88
2019-03-26T10:08:25.526Z,5.92
2019-03-26T10:10:25.333Z,5.86
2019-03-26T10:12:25.147Z,5.91
2019-03-26T10:14:25.187Z,5.82
2019-03-26T10:16:25.380Z,5.87
2019-03-26T10:18:25.249Z,5.83
2019-03-26T10:20:25.263Z,5.82
2019-03-26T10:22:25.479Z,5.95
2019-03-26T10:24:25.638Z,6.00
2019-03-26T10:26:25.410Z,5.98
2019-03-26T10:28:25.315Z,6.01
2019-03-26T10:30:25.129Z,5.97
2019-03-26T10:32:25.417Z,6.04
2019-03-26T10:34:25.305Z,6.08
2019-03-26T10:36:25.258Z,6.02
2019-03-26T10:38:25.174Z,6.32
2019-03-26T10:40:25.525Z,6.36
2019-03-26T10:42:25.292Z,6.45
2019-03-26T10:44:25.504Z,6.56
2019-03-26T10:46:25.512Z,6.71
2019-03-26T10:48:25.320Z,6.85
2019-03-26T10:50:25.233Z,6.91
2019-03-26T10:52:25.559Z,7.15
2019-03-26T10:54:25.354Z,7.55
2019-03-26T10:56:25.305Z,7.88
2019-03-26T10:58:25.393Z,8.05
2019-03-26T11:00:25.604Z,8.12
2019-03-26T11:02:25.197Z,8.29
2019-03-26T11:04:25.419Z,8.43
2019-03-26T11:06:25.432Z,8.31
2019-03-26T11:08:25.437Z,8.25
2019-03-26T11:10:25.202Z,8.17
2019-03-26T11:12:25.395Z,8.14
2019-03-26T11:14:25.387Z,8.01
2019-03-26T11:16:25.311Z,7.94
2019-03-26T11:18:25.199Z,7.84
2019-03-26T11:20:25.284Z,7.75
2019-03-26T11:22:25.153Z,7.70
2019-03-26T11:24:25.359Z,7.74
2019-03-26T11:26:25.731Z,7.69
2019-03-26T11:28:25.555Z,7.57
2019-03-26T11:30:25.672Z,7.42
2019-03-26T11:32:25.473Z,7.50
2019-03-26T11:34:25.492Z,7.51
2019-03-26T11:36:25.497Z,7.57
2019-03-26T11:38:25.437Z,7.58
2019-03-26T11:40:25.503Z,7.49
2019-03-26T11:42:25.534Z,7.48
2019-03-26T11:44:25.557Z,7.51
2019-03-26T11:46:25.556Z,7.49
2019-03-26T11:48:25.373Z,7.60
2019-03-26T11:50:25.375Z,7.56
2019-03-26T11:52:25.179Z,7.92
2019-03-26T11:54:25.408Z,8.22
2019-03-26T11:56:25.210Z,8.36
2019-03-26T11:58:30.775Z,8.41
2019-03-26T12:00:25.366Z,8.61
2019-03-26T12:02:25.463Z,8.90
2019-03-26T12:04:25.404Z,8.82
2019-03-26T12:06:25.068Z,8.84
2019-03-26T12:08:25.589Z,8.79
2019-03-26T12:10:25.225Z,8.70
2019-03-26T12:12:25.602Z,8.62
2019-03-26T12:14:25.420Z,8.65
2019-03-26T12:16:25.221Z,8.59
2019-03-26T12:18:25.583Z,8.53
2019-03-26T12:20:25.446Z,8.43
2019-03-26T12:22:25.374Z,8.45
2019-03-26T12:24:25.480Z,8.26
2019-03-26T12:26:25.410Z,8.18
2019-03-26T12:28:25.184Z,8.04
2019-03-26T12:30:25.354Z,7.95
2019-03-26T12:32:25.350Z,8.04
2019-03-26T12:34:25.246Z,7.88
2019-03-26T12:36:25.387Z,7.76
2019-03-26T12:38:25.551Z,7.66
2019-03-26T12:40:25.480Z,7.49
2019-03-26T12:42:25.587Z,7.49
2019-03-26T12:44:25.476Z,7.53
2019-03-26T12:46:25.375Z,7.49
2019-03-26T12:48:25.417Z,7.50
2019-03-26T12:50:25.630Z,7.47
2019-03-26T12:52:25.253Z,7.49
2019-03-26T12:54:25.445Z,7.48
2019-03-26T12:56:25.400Z,7.43
2019-03-26T12:58:31.664Z,7.69
2019-03-26T13:00:25.271Z,7.81
2019-03-26T13:02:25.488Z,8.20
2019-03-26T13:04:25.502Z,8.31
2019-03-26T13:06:25.513Z,8.57
2019-03-26T13:08:25.536Z,8.68
2019-03-26T13:10:25.714Z,8.79
2019-03-26T13:12:25.417Z,8.74
2019-03-26T13:14:25.559Z,8.81
2019-03-26T13:16:25.531Z,8.64
2019-03-26T13:18:25.589Z,8.54
2019-03-26T13:20:25.599Z,8.47
2019-03-26T13:22:25.877Z,8.52
2019-03-26T13:24:25.448Z,8.61
2019-03-26T13:26:25.459Z,8.72
2019-03-26T13:28:25.537Z,8.83
2019-03-26T13:30:25.891Z,8.81
2019-03-26T13:32:25.556Z,8.83
2019-03-26T13:34:25.344Z,8.92
2019-03-26T13:36:25.586Z,8.99
2019-03-26T13:38:25.604Z,9.27
2019-03-26T13:40:27.343Z,9.67
2019-03-26T13:42:25.822Z,9.83
2019-03-26T13:44:25.533Z,10.19
2019-03-26T13:46:25.545Z,10.20
2019-03-26T13:48:25.345Z,10.05
2019-03-26T13:50:25.568Z,10.12
2019-03-26T13:52:25.416Z,10.13
2019-03-26T13:54:25.491Z,10.23
2019-03-26T13:56:25.594Z,10.32
2019-03-26T13:58:25.613Z,10.23
2019-03-26T14:00:25.527Z,10.14
2019-03-26T14:02:25.343Z,10.04
2019-03-26T14:04:25.541Z,9.94
2019-03-26T14:06:25.907Z,9.69
2019-03-26T14:08:25.567Z,9.44
2019-03-26T14:10:25.580Z,9.34
2019-03-26T14:12:25.588Z,9.18
2019-03-26T14:14:25.599Z,9.06
2019-03-26T14:16:25.616Z,8.88
2019-03-26T14:18:25.759Z,8.79
2019-03-26T14:20:25.529Z,8.72
2019-03-26T14:22:25.655Z,8.56
2019-03-26T14:24:25.567Z,8.57
2019-03-26T14:26:25.564Z,8.46
2019-03-26T14:28:25.477Z,8.56
2019-03-26T14:30:25.489Z,8.56
2019-03-26T14:32:25.500Z,8.39
2019-03-26T14:34:25.466Z,8.52
2019-03-26T14:36:25.630Z,8.39
2019-03-26T14:38:25.639Z,8.41
2019-03-26T14:40:25.420Z,8.42
2019-03-26T14:42:25.565Z,8.46
2019-03-26T14:44:25.370Z,8.60
2019-03-26T14:46:25.584Z,8.53
2019-03-26T14:48:25.589Z,8.37
2019-03-26T14:50:25.400Z,8.42
2019-03-26T14:52:25.381Z,8.49
2019-03-26T14:54:25.576Z,8.35
2019-03-26T14:56:25.447Z,8.34
2019-03-26T14:58:25.757Z,8.36
2019-03-26T15:00:25.667Z,8.41
2019-03-26T15:02:25.476Z,8.40
2019-03-26T15:04:25.998Z,8.47
2019-03-26T15:06:25.319Z,8.44
2019-03-26T15:08:25.321Z,8.56
2019-03-26T15:10:25.622Z,8.43
2019-03-26T15:12:25.710Z,8.53
2019-03-26T15:14:25.443Z,8.30
2019-03-26T15:16:25.455Z,8.34
2019-03-26T15:18:25.872Z,8.27
2019-03-26T15:20:25.584Z,8.29
2019-03-26T15:22:25.503Z,8.22
2019-03-26T15:24:25.720Z,8.14
2019-03-26T15:26:25.516Z,8.17
2019-03-26T15:28:25.832Z,8.19
2019-03-26T15:30:25.555Z,7.98
2019-03-26T15:32:25.850Z,7.94
2019-03-26T15:34:35.658Z,8.06
2019-03-26T15:36:25.609Z,8.11
2019-03-26T15:38:26.094Z,8.30
2019-03-26T15:40:25.689Z,8.39
2019-03-26T15:42:25.634Z,8.65
2019-03-26T15:44:25.522Z,8.88
2019-03-26T15:46:25.726Z,9.20
2019-03-26T15:48:25.636Z,9.13
2019-03-26T15:50:25.750Z,8.90
2019-03-26T15:52:25.317Z,8.74
2019-03-26T15:54:25.707Z,8.66
2019-03-26T15:56:25.586Z,8.54
2019-03-26T15:58:25.388Z,8.56
2019-03-26T16:00:25.412Z,8.47
2019-03-26T16:02:25.625Z,8.39
2019-03-26T16:04:25.573Z,8.38
2019-03-26T16:06:25.587Z,8.32
2019-03-26T16:08:25.552Z,8.24
2019-03-26T16:10:25.765Z,8.01
2019-03-26T16:12:25.582Z,8.06
2019-03-26T16:14:28.184Z,7.89
2019-03-26T16:16:25.497Z,7.93
2019-03-26T16:18:25.712Z,7.75
2019-03-26T16:20:25.726Z,7.75
2019-03-26T16:22:25.746Z,7.81
2019-03-26T16:24:25.399Z,7.84
2019-03-26T16:26:25.646Z,7.84
2019-03-26T16:28:25.850Z,7.92
2019-03-26T16:30:25.801Z,7.76
2019-03-26T16:32:25.999Z,7.60
2019-03-26T16:34:25.422Z,7.70
2019-03-26T16:36:25.484Z,7.69
2019-03-26T16:38:25.628Z,7.52
2019-03-26T16:40:25.737Z,7.48
2019-03-26T16:42:25.655Z,7.62
2019-03-26T16:44:25.650Z,7.52
2019-03-26T16:46:25.695Z,7.58
2019-03-26T16:48:26.195Z,7.52
2019-03-26T16:50:25.602Z,7.54
2019-03-26T16:52:26.764Z,7.49
2019-03-26T16:54:25.969Z,7.41
2019-03-26T16:56:25.768Z,7.33
2019-03-26T16:58:25.644Z,7.42
2019-03-26T17:00:26.061Z,7.22
2019-03-26T17:02:26.122Z,7.30
2019-03-26T17:04:26.078Z,7.26
2019-03-26T17:06:25.995Z,7.20
2019-03-26T17:08:25.538Z,7.16
2019-03-26T17:10:25.402Z,7.16
2019-03-26T17:12:26.037Z,7.06
2019-03-26T17:14:25.420Z,7.12
2019-03-26T17:16:25.747Z,6.97
2019-03-26T17:18:25.653Z,6.93
2019-03-26T17:20:26.149Z,6.99
2019-03-26T17:22:25.522Z,6.91
2019-03-26T17:24:26.194Z,6.83
2019-03-26T17:26:25.799Z,6.94
2019-03-26T17:28:25.500Z,6.78
2019-03-26T17:30:26.033Z,6.68
2019-03-26T17:32:26.043Z,6.73
2019-03-26T17:34:25.667Z,6.78
2019-03-26T17:36:26.372Z,6.65
2019-03-26T17:38:25.774Z,6.72
2019-03-26T17:40:25.787Z,6.66
2019-03-26T17:42:26.198Z,6.63
2019-03-26T17:44:25.571Z,6.53
2019-03-26T17:46:25.819Z,6.61
2019-03-26T17:48:25.632Z,6.47
2019-03-26T17:50:25.784Z,6.41
2019-03-26T17:52:26.050Z,6.46
2019-03-26T17:54:25.756Z,6.41
2019-03-26T17:56:25.738Z,6.50
2019-03-26T17:58:26.088Z,6.49
2019-03-26T18:00:25.976Z,6.48
2019-03-26T18:02:25.909Z,6.33
2019-03-26T18:04:25.710Z,6.34
2019-03-26T18:06:25.632Z,6.32
2019-03-26T18:08:25.851Z,6.37
2019-03-26T18:10:25.652Z,6.38
2019-03-26T18:12:31.030Z,6.21
2019-03-26T18:14:25.880Z,6.35
2019-03-26T18:16:26.200Z,6.23
2019-03-26T18:18:25.711Z,6.24
2019-03-26T18:20:32.512Z,6.36
2019-03-26T18:22:25.925Z,6.26
2019-03-26T18:24:26.458Z,6.26
2019-03-26T18:26:25.868Z,6.34
2019-03-26T18:28:26.057Z,6.32
2019-03-26T18:30:26.074Z,6.26
2019-03-26T18:32:26.094Z,6.40
2019-03-26T18:34:26.130Z,6.25
2019-03-26T18:36:26.210Z,6.36
2019-03-26T18:38:26.229Z,6.20
2019-03-26T18:40:26.233Z,6.26
2019-03-26T18:42:25.909Z,6.26
2019-03-26T18:44:26.047Z,6.22
2019-03-26T18:46:26.177Z,6.14
2019-03-26T18:48:26.181Z,6.19
2019-03-26T18:50:25.981Z,6.17
2019-03-26T18:52:26.200Z,6.12
2019-03-26T18:54:26.005Z,6.15
2019-03-26T18:56:26.630Z,6.13
2019-03-26T18:58:26.229Z,6.14
2019-03-26T19:00:26.175Z,6.09
2019-03-26T19:02:25.936Z,6.25
2019-03-26T19:04:25.982Z,6.10
2019-03-26T19:06:26.178Z,6.21
2019-03-26T19:08:26.190Z,6.26
2019-03-26T19:10:26.001Z,6.24
2019-03-26T19:12:26.007Z,6.20
2019-03-26T19:14:28.839Z,6.20
2019-03-26T19:16:26.039Z,6.17
2019-03-26T19:18:25.937Z,6.29
2019-03-26T19:20:25.954Z,6.14
2019-03-26T19:22:25.962Z,6.17
2019-03-26T19:24:28.693Z,6.17
2019-03-26T19:26:25.761Z,6.11
2019-03-26T19:28:26.004Z,6.14
2019-03-26T19:30:26.015Z,6.18
2019-03-26T19:32:25.877Z,6.12
2019-03-26T19:34:25.936Z,6.03
2019-03-26T19:36:25.953Z,6.00
2019-03-26T19:38:25.866Z,5.97
2019-03-26T19:40:26.067Z,5.97
2019-03-26T19:42:26.296Z,6.04
2019-03-26T19:44:25.975Z,6.03
2019-03-26T19:46:26.104Z,5.94
2019-03-26T19:48:28.878Z,5.96
2019-03-26T19:50:28.737Z,5.88
2019-03-26T19:52:26.033Z,5.89
2019-03-26T19:54:25.992Z,5.92
2019-03-26T19:56:26.066Z,5.89
2019-03-26T19:58:25.726Z,5.81
2019-03-26T20:00:26.989Z,5.89
2019-03-26T20:02:26.007Z,5.95
2019-03-26T20:04:25.994Z,5.87
2019-03-26T20:06:26.129Z,5.85
2019-03-26T20:08:25.897Z,5.86
2019-03-26T20:10:26.114Z,5.85
2019-03-26T20:12:26.055Z,5.85
2019-03-26T20:14:26.068Z,5.95
2019-03-26T20:16:27.419Z,5.91
2019-03-26T20:18:25.972Z,5.81
2019-03-26T20:20:26.098Z,5.77
2019-03-26T20:22:26.016Z,5.81
2019-03-26T20:24:26.046Z,5.94
2019-03-26T20:26:26.035Z,5.89
2019-03-26T20:28:26.901Z,5.87
2019-03-26T20:30:26.154Z,5.86
2019-03-26T20:32:26.092Z,5.96
2019-03-26T20:34:25.980Z,5.83
2019-03-26T20:36:25.880Z,5.87
2019-03-26T20:38:26.098Z,5.84
2019-03-26T20:40:25.708Z,5.77
2019-03-26T20:42:26.022Z,5.87
2019-03-26T20:44:26.135Z,5.76
2019-03-26T20:46:25.755Z,5.82
2019-03-26T20:48:25.805Z,5.84
2019-03-26T20:50:26.067Z,5.95
2019-03-26T20:52:25.673Z,5.77
2019-03-26T20:54:25.750Z,5.82
2019-03-26T20:56:25.761Z,5.88
2019-03-26T20:58:25.638Z,5.82
2019-03-26T21:00:25.858Z,5.87
2019-03-26T21:02:25.740Z,5.94
2019-03-26T21:04:25.532Z,5.87
2019-03-26T21:06:25.622Z,5.82
2019-03-26T21:08:25.966Z,5.92
2019-03-26T21:10:25.775Z,6.01
2019-03-26T21:12:25.787Z,5.90
2019-03-26T21:14:25.528Z,5.88
2019-03-26T21:16:25.760Z,5.99
2019-03-26T21:18:25.826Z,5.95
2019-03-26T21:20:25.615Z,5.95
2019-03-26T21:22:25.765Z,5.92
2019-03-26T21:24:25.649Z,5.97
2019-03-26T21:26:25.645Z,5.91
2019-03-26T21:28:25.808Z,5.88
2019-03-26T21:30:25.898Z,5.94
2019-03-26T21:32:25.908Z,5.96
2019-03-26T21:34:30.697Z,5.92
2019-03-26T21:36:25.949Z,5.95
2019-03-26T21:38:25.729Z,5.80
2019-03-26T21:40:25.745Z,5.87
2019-03-26T21:42:25.556Z,5.83
2019-03-26T21:44:25.569Z,5.78
2019-03-26T21:46:25.785Z,5.90
2019-03-26T21:48:25.588Z,5.84
2019-03-26T21:50:25.813Z,5.84
2019-03-26T21:52:25.720Z,5.86
2019-03-26T21:54:25.648Z,5.84
2019-03-26T21:56:25.539Z,5.76
2019-03-26T21:58:25.622Z,5.86
2019-03-26T22:00:25.613Z,5.80
2019-03-26T22:02:25.742Z,5.83
2019-03-26T22:04:26.061Z,5.82
2019-03-26T22:06:25.649Z,5.76
2019-03-26T22:08:25.603Z,5.80
2019-03-26T22:10:25.816Z,5.61
2019-03-26T22:12:26.040Z,5.78
2019-03-26T22:14:25.852Z,5.89
2019-03-26T22:16:25.950Z,5.79
2019-03-26T22:18:25.559Z,5.83
2019-03-26T22:20:25.771Z,5.85
2019-03-26T22:22:25.594Z,5.75
2019-03-26T22:24:25.744Z,5.86
2019-03-26T22:26:25.532Z,5.72
2019-03-26T22:28:25.817Z,5.78
2019-03-26T22:30:25.929Z,5.70
2019-03-26T22:32:25.737Z,5.73
2019-03-26T22:34:25.752Z,5.81
2019-03-26T22:36:25.563Z,5.67
2019-03-26T22:38:25.676Z,5.72
2019-03-26T22:40:25.723Z,5.73
2019-03-26T22:42:25.800Z,5.64
2019-03-26T22:44:31.405Z,5.76
2019-03-26T22:46:25.919Z,5.66
2019-03-26T22:48:25.946Z,5.57
2019-03-26T22:50:25.687Z,5.60
2019-03-26T22:52:26.291Z,5.61
2019-03-26T22:54:26.094Z,5.52
2019-03-26T22:56:25.981Z,5.47
2019-03-26T22:58:25.557Z,5.64
2019-03-26T23:00:25.906Z,5.64
2019-03-26T23:02:25.712Z,5.59
2019-03-26T23:04:25.658Z,5.72
2019-03-26T23:06:25.634Z,5.68
2019-03-26T23:08:25.840Z,5.61
2019-03-26T23:10:25.970Z,5.56
2019-03-26T23:12:25.785Z,5.59
2019-03-26T23:14:25.623Z,5.64
2019-03-26T23:16:25.777Z,5.59
2019-03-26T23:18:25.705Z,5.57
2019-03-26T23:20:25.798Z,5.56
2019-03-26T23:22:25.827Z,5.54
2019-03-26T23:24:25.733Z,5.53
2019-03-26T23:26:25.697Z,5.48
2019-03-26T23:28:25.793Z,5.51
2019-03-26T23:30:25.613Z,5.49
2019-03-26T23:32:25.679Z,5.46
2019-03-26T23:34:25.689Z,5.49
2019-03-26T23:36:25.861Z,5.37
2019-03-26T23:38:25.670Z,5.54
2019-03-26T23:40:25.729Z,5.39
2019-03-26T23:42:25.828Z,5.51
2019-03-26T23:44:26.385Z,5.41
2019-03-26T23:46:25.760Z,5.45
2019-03-26T23:48:25.919Z,5.35
2019-03-26T23:50:26.190Z,5.36
2019-03-26T23:52:26.342Z,5.46
2019-03-26T23:54:25.811Z,5.44
2019-03-26T23:56:25.818Z,5.46
2019-03-26T23:58:25.624Z,5.35
